Time;durP1;ratioP1;P1;durP2;ratioP2;P2;SDS_P1;SDS_P2;PMS_P1;PMS_P2;Temp;Humidity;BMP_temperature;BMP_pressure;BME280_temperature;BME280_humidity;BME280_pressure;Samples;Min_cycle;Max_cycle;Signal;HPM_P1;HPM_P2
2023/05/31 00:07:36;;;;;;;1.80;0.80;;;;;;;;;;20834568;28;20597;-84
2023/05/31 00:17:38;;;;;;;1.20;0.60;;;;;;;;;;20818498;28;20239;-82
2023/05/31 00:27:40;;;;;;;1.73;0.70;;;;;;;;;;20813887;28;20243;-83
2023/05/31 00:37:41;;;;;;;1.73;0.63;;;;;;;;;;20853543;28;20290;-83
2023/05/31 00:47:44;;;;;;;2.50;0.80;;;;;;;;;;20839784;28;20787;-84
2023/05/31 00:57:46;;;;;;;2.23;0.77;;;;;;;;;;20871260;28;20262;-84
2023/05/31 01:07:47;;;;;;;1.77;0.90;;;;;;;;;;20868817;28;20227;-83
2023/05/31 01:17:49;;;;;;;2.30;0.80;;;;;;;;;;20866172;28;20228;-83
2023/05/31 01:27:53;;;;;;;1.63;0.60;;;20.50;99.60;;;;;;20843398;28;20227;-83
2023/05/31 01:37:54;;;;;;;1.70;0.70;;;;;;;;;;20828014;28;20735;-83
2023/05/31 01:48:04;;;;;;;0.87;0.70;;;;;;;;;;20855669;28;20295;-82
2023/05/31 01:58:05;;;;;;;2.90;1.00;;;;;;;;;;20931603;28;20233;-83
2023/05/31 02:08:08;;;;;;;2.47;0.90;;;;;;;;;;20907441;28;20249;-83
2023/05/31 02:18:10;;;;;;;1.60;0.90;;;;;;;;;;20925830;28;20237;-83
2023/05/31 02:28:12;;;;;;;2.27;0.90;;;;;;;;;;20908436;28;20310;-83
2023/05/31 02:38:14;;;;;;;1.73;0.77;;;;;;;;;;20948229;28;20305;-84
2023/05/31 02:48:16;;;;;;;1.90;0.67;;;;;;;;;;20923895;28;20266;-83
2023/05/31 02:58:18;;;;;;;2.90;0.60;;;;;;;;;;20939483;28;20217;-84
2023/05/31 03:08:31;;;;;;;1.37;0.80;;;;;;;;;;20925928;28;20239;-84
2023/05/31 03:18:33;;;;;;;1.07;0.60;;;;;;;;;;20901810;28;20285;-83
2023/05/31 03:28:35;;;;;;;2.50;0.97;;;;;;;;;;20932662;28;20242;-81
2023/05/31 03:38:38;;;;;;;1.37;0.77;;;;;;;;;;20914153;28;20655;-83
2023/05/31 03:48:41;;;;;;;2.37;0.83;;;;;;;;;;20911763;28;20739;-83
2023/05/31 03:58:45;;;;;;;3.07;0.70;;;;;;;;;;20918936;28;20227;-83
2023/05/31 04:08:47;;;;;;;4.10;0.90;;;;;;;;;;20894800;28;20256;-84
2023/05/31 04:18:49;;;;;;;2.50;0.87;;;;;;;;;;20933874;28;20218;-83
2023/05/31 04:28:53;;;;;;;2.50;0.90;;;;;;;;;;20926001;28;20271;-84
2023/05/31 04:38:56;;;;;;;1.93;0.93;;;;;;;;;;20917947;28;20208;-84
2023/05/31 04:49:03;;;;;;;3.37;0.90;;;;;;;;;;20970287;28;20665;-84
2023/05/31 04:59:07;;;;;;;3.43;0.97;;;;;;;;;;20955650;28;20366;-84
2023/05/31 05:09:09;;;;;;;1.43;0.80;;;;;;;;;;20952363;28;20274;-83
2023/05/31 05:19:12;;;;;;;2.60;1.00;;;;;;;;;;20918590;28;20267;-83
2023/05/31 05:29:16;;;;;;;1.20;0.73;;;;;;;;;;20966520;28;20936;-84
2023/05/31 05:39:21;;;;;;;2.13;0.80;;;;;;;;;;20926563;28;20222;-83
2023/05/31 05:49:23;;;;;;;1.87;0.70;;;;;;;;;;20936251;28;20461;-82
2023/05/31 05:59:25;;;;;;;2.23;0.90;;;;;;;;;;20939205;28;20264;-83
2023/05/31 06:09:35;;;;;;;1.63;0.80;;;;;;;;;;20999969;22;20244;-66
2023/05/31 06:19:37;;;;;;;3.93;1.10;;;;;;;;;;20928476;28;20758;-67
2023/05/31 06:29:39;;;;;;;3.27;1.00;;;;;;;;;;20900829;28;20616;-67
2023/05/31 06:39:54;;;;;;;3.40;0.83;;;;;;;;;;20946743;28;20247;-67
2023/05/31 06:49:56;;;;;;;4.20;1.00;;;;;;;;;;20898463;28;20222;-66
2023/05/31 07:00:19;;;;;;;2.70;0.70;;;;;;;;;;20847073;28;20706;-66
2023/05/31 07:10:22;;;;;;;2.90;0.70;;;;;;;;;;20873051;28;20234;-66
2023/05/31 07:20:25;;;;;;;1.77;0.70;;;;;;;;;;20934502;28;20242;-66
2023/05/31 07:30:26;;;;;;;2.50;0.87;;;;;;;;;;20911124;28;20756;-67
2023/05/31 07:40:28;;;;;;;2.17;1.00;;;;;;;;;;20930666;28;20223;-66
2023/05/31 07:50:30;;;;;;;1.07;0.60;;;;;;;;;;20952261;28;20344;-66
2023/05/31 08:00:33;;;;;;;1.77;0.70;;;22.00;84.40;;;;;;20926814;28;20220;-66
2023/05/31 08:10:36;;;;;;;3.23;0.80;;;22.40;87.50;;;;;;20980601;28;20300;-66
2023/05/31 08:20:38;;;;;;;2.10;0.70;;;;;;;;;;20930682;28;20616;-66
2023/05/31 08:30:40;;;;;;;2.47;0.80;;;;;;;;;;20935211;28;20358;-66
2023/05/31 08:40:42;;;;;;;1.43;0.60;;;;;;;;;;20940633;28;20226;-66
2023/05/31 08:50:45;;;;;;;2.73;0.80;;;;;;;;;;20924790;28;20585;-66
2023/05/31 09:00:47;;;;;;;1.83;0.60;;;;;;;;;;20925299;28;20640;-69
2023/05/31 10:03:59;;;;;;;1.75;0.65;;;;;;;;;;20948893;22;20620;-66
2023/05/31 10:14:02;;;;;;;2.15;0.80;;;;;;;;;;20785918;28;20219;-67
2023/05/31 10:24:08;;;;;;;1.05;0.60;;;;;;;;;;20765010;28;20222;-67
2023/05/31 10:34:21;;;;;;;1.15;0.60;;;;;;;;;;20804241;28;20232;-67
2023/05/31 10:44:26;;;;;;;2.58;0.80;;;;;;;;;;20786438;28;20204;-66
2023/05/31 10:54:28;;;;;;;1.92;0.70;;;;;;;;;;20787394;28;20221;-66
2023/05/31 11:04:30;;;;;;;3.05;0.82;;;;;;;;;;20734325;28;20205;-66
2023/05/31 11:14:32;;;;;;;1.63;0.60;;;;;;;;;;20731211;28;20222;-68
2023/05/31 11:24:37;;;;;;;1.27;0.60;;;;;;;;;;20741860;28;20686;-68
2023/05/31 11:35:09;;;;;;;2.67;0.68;;;;;;;;;;20713042;28;20223;-69
2023/05/31 11:45:12;;;;;;;1.58;0.65;;;;;;;;;;20703930;28;20213;-68
2023/05/31 11:55:17;;;;;;;1.17;0.52;;;27.50;67.50;;;;;;20721451;28;20722;-68
2023/05/31 12:05:19;;;;;;;0.77;0.47;;;;;;;;;;20690977;28;20218;-68
2023/05/31 12:15:21;;;;;;;0.95;0.50;;;;;;;;;;20752524;28;20582;-68
2023/05/31 12:25:23;;;;;;;0.93;0.50;;;;;;;;;;20726012;28;20205;-68
2023/05/31 12:35:25;;;;;;;3.75;0.50;;;28.20;65.00;;;;;;20723098;28;20226;-68
2023/05/31 12:45:27;;;;;;;2.58;0.60;;;;;;;;;;20923559;22;20389;-75
2023/05/31 12:55:29;;;;;;;0.90;0.55;;;;;;;;;;18989544;28;10001010;-74
2023/05/31 13:05:30;;;;;;;1.80;0.80;;;;;;;;;;17155792;28;10000933;-74
2023/05/31 13:15:32;;;;;;;2.05;0.60;;;;;;;;;;19775429;28;10000818;-77
2023/05/31 13:25:35;;;;;;;0.98;0.52;;;;;;;;;;20654060;28;20213;-71
2023/05/31 13:35:39;;;;;;;3.63;0.60;;;;;;;;;;20643772;28;20265;-72
2023/05/31 13:45:41;;;;;;;2.75;1.02;;;;;;;;;;20644180;28;20313;-74
2023/05/31 13:55:43;;;;;;;2.75;0.50;;;;;;;;;;20645529;28;20293;-71
2023/05/31 14:05:49;;;;;;;1.00;0.50;;;;;;;;;;20627393;28;20243;-78
2023/05/31 14:15:54;;;;;;;2.20;0.77;;;;;;;;;;20658063;28;20232;-81
2023/05/31 14:25:56;;;;;;;0.98;0.50;;;;;;;;;;20663914;28;20277;-82
2023/05/31 14:35:58;;;;;;;0.80;0.50;;;;;;;;;;20683976;28;20641;-80
2023/05/31 14:45:59;;;;;;;0.75;0.47;;;;;;;;;;20666077;28;20234;-81
2023/05/31 14:56:02;;;;;;;0.82;0.50;;;;;;;;;;20671336;28;20690;-81
2023/05/31 15:06:04;;;;;;;2.00;0.82;;;;;;;;;;20651652;28;20722;-80
2023/05/31 15:16:06;;;;;;;1.00;0.50;;;;;;;;;;20640703;28;20256;-78
2023/05/31 15:26:08;;;;;;;1.45;0.60;;;;;;;;;;20652433;28;20225;-81
2023/05/31 15:36:09;;;;;;;2.13;0.70;;;;;;;;;;20651940;28;20342;-80
2023/05/31 15:46:11;;;;;;;0.88;0.50;;;;;;;;;;20671061;28;20234;-81
2023/05/31 15:56:13;;;;;;;1.65;0.63;;;;;;;;;;20649634;28;20230;-78
2023/05/31 16:06:15;;;;;;;1.00;0.43;;;;;;;;;;20646815;28;20251;-79
2023/05/31 16:16:16;;;;;;;0.98;0.45;;;;;;;;;;20650878;28;20254;-77
2023/05/31 16:26:18;;;;;;;1.50;0.50;;;;;;;;;;20601144;28;20231;-77
2023/05/31 16:36:20;;;;;;;3.17;1.02;;;;;;;;;;20649232;28;20242;-78
2023/05/31 16:46:21;;;;;;;1.85;0.63;;;;;;;;;;20659157;28;20214;-78
2023/05/31 16:56:23;;;;;;;1.13;0.50;;;;;;;;;;20634553;28;20221;-76
2023/05/31 17:06:25;;;;;;;1.77;0.50;;;;;;;;;;20658032;28;20210;-77
2023/05/31 17:16:26;;;;;;;3.53;0.80;;;;;;;;;;20656828;28;20286;-76
2023/05/31 17:26:28;;;;;;;1.55;0.70;;;;;;;;;;20636421;28;20222;-78
2023/05/31 17:36:30;;;;;;;1.27;0.40;;;;;;;;;;20649262;28;20253;-77
2023/05/31 17:46:32;;;;;;;2.58;0.60;;;;;;;;;;20651117;28;20724;-77
2023/05/31 17:56:33;;;;;;;0.80;0.50;;;;;;;;;;20651365;28;20222;-77
2023/05/31 18:06:36;;;;;;;1.15;0.60;;;;;;;;;;20652429;28;20253;-79
2023/05/31 18:16:38;;;;;;;0.70;0.60;;;27.30;68.30;;;;;;20675897;28;20238;-77
2023/05/31 18:26:40;;;;;;;2.00;0.80;;;;;;;;;;20652149;28;20292;-77
2023/05/31 18:36:42;;;;;;;1.70;0.52;;;;;;;;;;20661341;28;20230;-77
2023/05/31 18:46:43;;;;;;;1.23;0.60;;;;;;;;;;20681403;23;20209;-69
2023/05/31 18:56:45;;;;;;;2.28;0.68;;;;;;;;;;20648388;28;20269;-69
2023/05/31 19:06:48;;;;;;;2.20;0.60;;;;;;;;;;20648539;28;20268;-69
2023/05/31 19:16:50;;;;;;;0.50;0.40;;;;;;;;;;20561157;28;20231;-69
2023/05/31 19:26:53;;;;;;;0.77;0.40;;;;;;;;;;20594530;28;20259;-69
2023/05/31 19:36:55;;;;;;;1.17;0.70;;;;;;;;;;20576617;28;20240;-69
2023/05/31 19:46:57;;;;;;;0.47;0.40;;;;;;;;;;20544370;28;20228;-69
2023/05/31 19:56:58;;;;;;;1.83;0.70;;;;;;;;;;20526247;28;20301;-69
2023/05/31 20:07:01;;;;;;;3.30;0.88;;;;;;;;;;20582966;28;20254;-69
2023/05/31 20:17:03;;;;;;;1.70;0.68;;;;;;;;;;20580879;28;20233;-69
2023/05/31 20:27:05;;;;;;;1.60;0.70;;;25.70;68.10;;;;;;20564497;28;20639;-69
2023/05/31 20:37:07;;;;;;;3.10;0.80;;;;;;;;;;20558660;28;20218;-69
2023/05/31 20:47:09;;;;;;;2.17;0.90;;;25.30;73.50;;;;;;20569492;28;20235;-69
2023/05/31 20:57:11;;;;;;;1.23;0.60;;;;;;;;;;20528479;28;20222;-69
2023/05/31 21:07:14;;;;;;;4.10;1.60;;;;;;;;;;20528013;28;20301;-69
2023/05/31 21:17:15;;;;;;;1.90;0.75;;;;;;;;;;20578478;28;20221;-69
2023/05/31 21:27:17;;;;;;;1.52;0.50;;;;;;;;;;20561831;28;20286;-69
2023/05/31 21:37:19;;;;;;;2.03;0.77;;;;;;;;;;20559411;28;20226;-69
2023/05/31 21:47:21;;;;;;;1.70;0.80;;;;;;;;;;20574483;28;20802;-68
2023/05/31 21:57:23;;;;;;;1.80;0.95;;;;;;;;;;20559912;28;20283;-69
2023/05/31 22:07:25;;;;;;;1.55;0.82;;;;;;;;;;20526611;28;20234;-69
2023/05/31 22:17:27;;;;;;;3.80;0.88;;;23.90;86.00;;;;;;20549224;28;20275;-69
2023/05/31 22:27:29;;;;;;;1.45;0.70;;;;;;;;;;20560704;28;20264;-68
2023/05/31 22:37:31;;;;;;;1.35;0.60;;;;;;;;;;20525585;28;20560;-69
2023/05/31 22:47:32;;;;;;;1.17;0.80;;;;;;;;;;20538243;28;20265;-69
2023/05/31 22:57:34;;;;;;;2.67;0.98;;;;;;;;;;20587384;28;20228;-68
2023/05/31 23:07:38;;;;;;;0.93;0.50;;;23.60;89.20;;;;;;20570471;28;20223;-68
2023/05/31 23:17:41;;;;;;;0.75;0.57;;;23.40;91.80;;;;;;20563664;28;20258;-69
2023/05/31 23:27:43;;;;;;;2.85;0.80;;;;;;;;;;20540764;28;20225;-68
2023/05/31 23:37:44;;;;;;;2.35;0.80;;;;;;;;;;20536363;28;20228;-68
2023/05/31 23:47:46;;;;;;;1.25;0.52;;;;;;;;;;20567277;28;20224;-69
2023/05/31 23:57:48;;;;;;;2.25;0.70;;;;;;;;;;20535012;28;20311;-68
